CYZE

Gore Bay Manitoulin Airport

Gore Bay, Ontario, Canada
METAR CYZE 210400Z AUTO VRB02KT 9SM OVC095 01/M01 A2995 RMK SLP152
Observed Flight Rules
Jan-21 @ 04:00 UTC (42 minutes ago) Visual Flight Rules
Wind Visibility Clouds
Variable at 2 knots 9 miles
  • Overcast at 9,500' AGL
Temperatures Readings
Current 1°C / 34°F
Dewpoint -1°C / 30°F
Humidity 87%
Altimeter 29.95" Hg
Pressure 1015.2 hPa
Elevation 193
METAR CYZE 210400Z AUTO VRB02KT 9SM OVC095 01/M01 A2995 RMK SLP152
Observed Flight Rules
Jan-21 @ 04:00 UTC
(42 minutes ago)
VFR
Wind Visibility
Variable at 2 knots 9 miles
Clouds
  • Overcast at 9,500' AGL
Temperature Dewpoint
1°C / 34°F -1°C / 30°F
Humidity Altimeter Pressure
87% 29.95" Hg 1015.2 hPa